sensor_id;sensor_type;location;lat;lon;timestamp;P1;durP1;ratioP1;P2;durP2;ratioP2
21488;SDS011;10906;45.194;5.684;2022-12-05T06:02:14;28.25;;;14.45;;
21488;SDS011;10906;45.194;5.684;2022-12-05T06:04:59;27.63;;;15.48;;
21488;SDS011;10906;45.194;5.684;2022-12-05T06:07:43;27.02;;;15.32;;
21488;SDS011;10906;45.194;5.684;2022-12-05T06:10:28;33.25;;;17.23;;
21488;SDS011;10906;45.194;5.684;2022-12-05T06:13:12;40.25;;;17.80;;
21488;SDS011;10906;45.194;5.684;2022-12-05T06:15:57;29.10;;;15.55;;
21488;SDS011;10906;45.194;5.684;2022-12-05T06:18:41;33.50;;;17.50;;
21488;SDS011;10906;45.194;5.684;2022-12-05T06:21:26;34.58;;;17.33;;
21488;SDS011;10906;45.194;5.684;2022-12-05T06:24:10;35.35;;;17.33;;
21488;SDS011;10906;45.194;5.684;2022-12-05T06:26:55;35.40;;;16.25;;
21488;SDS011;10906;45.194;5.684;2022-12-05T06:29:40;26.50;;;15.40;;
21488;SDS011;10906;45.194;5.684;2022-12-05T06:32:27;29.88;;;14.80;;
21488;SDS011;10906;45.194;5.684;2022-12-05T06:35:12;26.63;;;15.73;;
21488;SDS011;10906;45.194;5.684;2022-12-05T06:37:59;29.77;;;16.63;;
21488;SDS011;10906;45.194;5.684;2022-12-05T06:40:44;37.35;;;17.23;;
21488;SDS011;10906;45.194;5.684;2022-12-05T06:43:29;35.30;;;17.35;;
21488;SDS011;10906;45.194;5.684;2022-12-05T06:46:13;40.05;;;17.98;;
21488;SDS011;10906;45.194;5.684;2022-12-05T06:49:04;31.70;;;19.65;;
21488;SDS011;10906;45.194;5.684;2022-12-05T06:51:57;42.08;;;18.67;;
21488;SDS011;10906;45.194;5.684;2022-12-05T06:54:42;34.90;;;17.65;;
21488;SDS011;10906;45.194;5.684;2022-12-05T06:57:29;40.22;;;19.17;;
21488;SDS011;10906;45.194;5.684;2022-12-05T07:00:16;44.00;;;19.17;;
21488;SDS011;10906;45.194;5.684;2022-12-05T07:03:22;40.45;;;18.90;;
21488;SDS011;10906;45.194;5.684;2022-12-05T07:06:12;47.33;;;20.00;;
21488;SDS011;10906;45.194;5.684;2022-12-05T07:08:57;38.55;;;18.88;;
21488;SDS011;10906;45.194;5.684;2022-12-05T07:14:49;37.20;;;17.92;;
21488;SDS011;10906;45.194;5.684;2022-12-05T07:17:37;33.50;;;16.80;;
21488;SDS011;10906;45.194;5.684;2022-12-05T07:20:24;35.08;;;18.50;;
21488;SDS011;10906;45.194;5.684;2022-12-05T07:23:12;28.25;;;15.15;;
21488;SDS011;10906;45.194;5.684;2022-12-05T07:26:03;25.17;;;14.82;;
21488;SDS011;10906;45.194;5.684;2022-12-05T07:28:49;34.75;;;14.45;;
21488;SDS011;10906;45.194;5.684;2022-12-05T07:31:41;25.63;;;13.75;;
21488;SDS011;10906;45.194;5.684;2022-12-05T07:34:25;20.50;;;11.52;;
21488;SDS011;10906;45.194;5.684;2022-12-05T07:37:10;17.88;;;10.60;;
21488;SDS011;10906;45.194;5.684;2022-12-05T07:39:59;18.13;;;10.32;;
21488;SDS011;10906;45.194;5.684;2022-12-05T07:42:49;18.20;;;10.93;;
21488;SDS011;10906;45.194;5.684;2022-12-05T07:45:36;18.63;;;10.68;;
21488;SDS011;10906;45.194;5.684;2022-12-05T07:48:21;21.45;;;11.48;;
21488;SDS011;10906;45.194;5.684;2022-12-05T07:51:07;18.27;;;11.93;;
21488;SDS011;10906;45.194;5.684;2022-12-05T07:53:53;26.65;;;14.05;;
21488;SDS011;10906;45.194;5.684;2022-12-05T07:56:38;26.50;;;15.10;;
21488;SDS011;10906;45.194;5.684;2022-12-05T07:59:22;23.75;;;13.90;;
21488;SDS011;10906;45.194;5.684;2022-12-05T08:02:07;24.77;;;15.18;;
21488;SDS011;10906;45.194;5.684;2022-12-05T08:04:52;28.05;;;16.58;;
21488;SDS011;10906;45.194;5.684;2022-12-05T08:07:37;31.33;;;18.00;;
21488;SDS011;10906;45.194;5.684;2022-12-05T08:10:21;33.67;;;17.88;;
21488;SDS011;10906;45.194;5.684;2022-12-05T08:13:06;28.63;;;16.90;;
21488;SDS011;10906;45.194;5.684;2022-12-05T08:15:51;31.20;;;17.38;;
21488;SDS011;10906;45.194;5.684;2022-12-05T08:18:35;28.13;;;17.40;;
21488;SDS011;10906;45.194;5.684;2022-12-05T08:21:20;29.20;;;17.60;;
21488;SDS011;10906;45.194;5.684;2022-12-05T08:24:05;29.70;;;17.92;;
21488;SDS011;10906;45.194;5.684;2022-12-05T08:26:50;32.78;;;18.33;;
21488;SDS011;10906;45.194;5.684;2022-12-05T08:29:35;30.75;;;19.23;;
21488;SDS011;10906;45.194;5.684;2022-12-05T08:32:19;31.63;;;18.33;;
21488;SDS011;10906;45.194;5.684;2022-12-05T08:35:04;29.90;;;18.85;;
21488;SDS011;10906;45.194;5.684;2022-12-05T08:37:48;34.90;;;19.55;;
21488;SDS011;10906;45.194;5.684;2022-12-05T08:40:35;32.72;;;17.77;;
21488;SDS011;10906;45.194;5.684;2022-12-05T08:43:23;30.00;;;19.45;;
21488;SDS011;10906;45.194;5.684;2022-12-05T08:46:07;27.88;;;18.65;;
21488;SDS011;10906;45.194;5.684;2022-12-05T08:48:52;28.42;;;19.38;;
21488;SDS011;10906;45.194;5.684;2022-12-05T08:51:37;33.20;;;20.30;;
21488;SDS011;10906;45.194;5.684;2022-12-05T08:54:22;30.85;;;20.40;;
21488;SDS011;10906;45.194;5.684;2022-12-05T08:57:10;28.05;;;17.50;;
21488;SDS011;10906;45.194;5.684;2022-12-05T08:59:56;27.15;;;18.13;;
21488;SDS011;10906;45.194;5.684;2022-12-05T09:02:41;27.52;;;17.67;;
21488;SDS011;10906;45.194;5.684;2022-12-05T09:05:26;27.02;;;15.75;;
21488;SDS011;10906;45.194;5.684;2022-12-05T09:08:10;23.83;;;16.92;;
21488;SDS011;10906;45.194;5.684;2022-12-05T09:10:58;26.52;;;16.27;;
21488;SDS011;10906;45.194;5.684;2022-12-05T09:13:46;20.95;;;13.55;;
21488;SDS011;10906;45.194;5.684;2022-12-05T09:16:52;19.20;;;13.48;;
21488;SDS011;10906;45.194;5.684;2022-12-05T09:19:39;18.13;;;13.30;;
21488;SDS011;10906;45.194;5.684;2022-12-05T09:22:24;18.23;;;11.82;;
21488;SDS011;10906;45.194;5.684;2022-12-05T09:25:08;18.38;;;13.70;;
21488;SDS011;10906;45.194;5.684;2022-12-05T09:27:53;18.63;;;13.50;;
21488;SDS011;10906;45.194;5.684;2022-12-05T09:30:37;17.73;;;12.75;;
21488;SDS011;10906;45.194;5.684;2022-12-05T09:33:22;14.77;;;10.07;;
21488;SDS011;10906;45.194;5.684;2022-12-05T09:36:16;18.15;;;12.32;;
21488;SDS011;10906;45.194;5.684;2022-12-05T09:39:04;13.80;;;9.82;;
21488;SDS011;10906;45.194;5.684;2022-12-05T09:41:54;11.38;;;8.55;;
21488;SDS011;10906;45.194;5.684;2022-12-05T09:48:04;11.68;;;9.60;;
21488;SDS011;10906;45.194;5.684;2022-12-05T09:50:52;14.00;;;9.88;;
21488;SDS011;10906;45.194;5.684;2022-12-05T09:53:46;13.70;;;10.23;;
21488;SDS011;10906;45.194;5.684;2022-12-05T09:56:31;10.65;;;7.65;;
21488;SDS011;10906;45.194;5.684;2022-12-05T09:59:15;13.95;;;9.90;;
21488;SDS011;10906;45.194;5.684;2022-12-05T10:02:19;9.73;;;7.72;;
21488;SDS011;10906;45.194;5.684;2022-12-05T10:05:22;10.02;;;7.72;;
21488;SDS011;10906;45.194;5.684;2022-12-05T10:11:13;12.98;;;9.68;;
21488;SDS011;10906;45.194;5.684;2022-12-05T10:14:31;13.18;;;10.57;;
21488;SDS011;10906;45.194;5.684;2022-12-05T10:17:33;13.68;;;10.27;;
21488;SDS011;10906;45.194;5.684;2022-12-05T10:20:43;13.85;;;9.60;;
21488;SDS011;10906;45.194;5.684;2022-12-05T10:23:34;10.02;;;7.90;;
21488;SDS011;10906;45.194;5.684;2022-12-05T10:26:31;9.88;;;5.75;;
21488;SDS011;10906;45.194;5.684;2022-12-05T10:29:30;8.98;;;6.82;;
21488;SDS011;10906;45.194;5.684;2022-12-05T10:32:39;8.85;;;5.70;;
21488;SDS011;10906;45.194;5.684;2022-12-05T10:35:35;9.15;;;6.70;;
21488;SDS011;10906;45.194;5.684;2022-12-05T10:41:10;8.60;;;7.13;;
21488;SDS011;10906;45.194;5.684;2022-12-05T10:43:56;11.57;;;8.98;;
21488;SDS011;10906;45.194;5.684;2022-12-05T10:46:42;7.47;;;6.20;;
21488;SDS011;10906;45.194;5.684;2022-12-05T10:49:27;9.27;;;6.75;;
21488;SDS011;10906;45.194;5.684;2022-12-05T10:52:13;9.57;;;6.65;;
21488;SDS011;10906;45.194;5.684;2022-12-05T10:55:01;9.30;;;6.72;;
21488;SDS011;10906;45.194;5.684;2022-12-05T10:57:52;11.63;;;6.70;;
21488;SDS011;10906;45.194;5.684;2022-12-05T11:01:07;14.90;;;11.10;;
21488;SDS011;10906;45.194;5.684;2022-12-05T11:03:57;9.10;;;6.28;;
21488;SDS011;10906;45.194;5.684;2022-12-05T11:07:02;7.93;;;6.10;;
21488;SDS011;10906;45.194;5.684;2022-12-05T11:21:27;9.60;;;6.93;;
21488;SDS011;10906;45.194;5.684;2022-12-05T11:24:29;9.18;;;6.03;;
21488;SDS011;10906;45.194;5.684;2022-12-05T11:27:19;8.25;;;5.72;;
21488;SDS011;10906;45.194;5.684;2022-12-05T11:30:17;9.75;;;5.20;;
21488;SDS011;10906;45.194;5.684;2022-12-05T11:33:09;6.68;;;5.03;;
21488;SDS011;10906;45.194;5.684;2022-12-05T11:36:10;7.82;;;5.78;;
21488;SDS011;10906;45.194;5.684;2022-12-05T11:38:56;6.55;;;5.18;;
21488;SDS011;10906;45.194;5.684;2022-12-05T11:44:55;8.13;;;5.95;;
21488;SDS011;10906;45.194;5.684;2022-12-05T11:47:54;8.65;;;6.07;;
21488;SDS011;10906;45.194;5.684;2022-12-05T11:59:29;8.70;;;5.88;;
21488;SDS011;10906;45.194;5.684;2022-12-05T12:05:29;6.72;;;5.70;;
21488;SDS011;10906;45.194;5.684;2022-12-05T12:08:33;7.20;;;6.13;;
21488;SDS011;10906;45.194;5.684;2022-12-05T12:11:42;9.77;;;5.95;;
21488;SDS011;10906;45.194;5.684;2022-12-05T12:27:14;8.32;;;5.07;;
21488;SDS011;10906;45.194;5.684;2022-12-05T12:34:01;6.30;;;5.10;;
21488;SDS011;10906;45.194;5.684;2022-12-05T12:37:02;6.25;;;4.82;;
21488;SDS011;10906;45.194;5.684;2022-12-05T12:40:29;6.95;;;5.53;;
21488;SDS011;10906;45.194;5.684;2022-12-05T12:43:28;5.80;;;5.15;;
21488;SDS011;10906;45.194;5.684;2022-12-05T12:52:50;6.60;;;4.65;;
21488;SDS011;10906;45.194;5.684;2022-12-05T13:02:47;6.55;;;5.05;;
21488;SDS011;10906;45.194;5.684;2022-12-05T13:08:46;8.85;;;5.32;;
21488;SDS011;10906;45.194;5.684;2022-12-05T13:11:39;9.75;;;6.55;;
21488;SDS011;10906;45.194;5.684;2022-12-05T13:14:25;7.50;;;5.60;;
21488;SDS011;10906;45.194;5.684;2022-12-05T13:17:14;8.20;;;6.30;;
21488;SDS011;10906;45.194;5.684;2022-12-05T13:20:02;8.18;;;5.68;;
21488;SDS011;10906;45.194;5.684;2022-12-05T13:22:47;8.65;;;5.43;;
21488;SDS011;10906;45.194;5.684;2022-12-05T13:25:35;8.52;;;4.68;;
21488;SDS011;10906;45.194;5.684;2022-12-05T13:28:46;6.70;;;4.53;;
21488;SDS011;10906;45.194;5.684;2022-12-05T13:31:35;7.18;;;4.80;;
21488;SDS011;10906;45.194;5.684;2022-12-05T13:37:29;6.38;;;5.35;;
21488;SDS011;10906;45.194;5.684;2022-12-05T13:40:33;10.25;;;7.15;;
21488;SDS011;10906;45.194;5.684;2022-12-05T13:43:44;10.43;;;8.88;;
21488;SDS011;10906;45.194;5.684;2022-12-05T13:46:32;15.63;;;11.00;;
21488;SDS011;10906;45.194;5.684;2022-12-05T13:49:26;16.60;;;11.52;;
21488;SDS011;10906;45.194;5.684;2022-12-05T13:52:19;20.67;;;12.48;;
21488;SDS011;10906;45.194;5.684;2022-12-05T13:55:29;16.00;;;12.13;;
21488;SDS011;10906;45.194;5.684;2022-12-05T14:07:41;14.50;;;10.98;;
21488;SDS011;10906;45.194;5.684;2022-12-05T14:23:07;19.45;;;12.75;;
21488;SDS011;10906;45.194;5.684;2022-12-05T14:26:05;20.17;;;13.05;;
21488;SDS011;10906;45.194;5.684;2022-12-05T14:35:16;18.40;;;13.73;;
21488;SDS011;10906;45.194;5.684;2022-12-05T14:38:19;19.85;;;13.45;;
21488;SDS011;10906;45.194;5.684;2022-12-05T14:41:15;28.42;;;13.48;;
21488;SDS011;10906;45.194;5.684;2022-12-05T14:44:10;27.85;;;13.32;;
21488;SDS011;10906;45.194;5.684;2022-12-05T14:47:02;20.65;;;13.70;;
21488;SDS011;10906;45.194;5.684;2022-12-05T14:56:22;21.27;;;13.98;;
21488;SDS011;10906;45.194;5.684;2022-12-05T15:02:26;33.38;;;14.52;;
21488;SDS011;10906;45.194;5.684;2022-12-05T15:05:21;27.40;;;14.07;;
21488;SDS011;10906;45.194;5.684;2022-12-05T15:08:10;24.80;;;14.63;;
21488;SDS011;10906;45.194;5.684;2022-12-05T15:11:00;20.50;;;14.35;;
21488;SDS011;10906;45.194;5.684;2022-12-05T15:13:45;25.13;;;14.27;;
21488;SDS011;10906;45.194;5.684;2022-12-05T15:16:30;24.75;;;14.85;;
21488;SDS011;10906;45.194;5.684;2022-12-05T15:19:22;23.60;;;16.30;;
21488;SDS011;10906;45.194;5.684;2022-12-05T15:22:22;22.77;;;15.77;;
21488;SDS011;10906;45.194;5.684;2022-12-05T15:25:13;22.90;;;14.43;;
21488;SDS011;10906;45.194;5.684;2022-12-05T15:28:05;28.02;;;14.65;;
21488;SDS011;10906;45.194;5.684;2022-12-05T15:31:00;20.10;;;14.20;;
21488;SDS011;10906;45.194;5.684;2022-12-05T15:33:49;21.23;;;13.95;;
21488;SDS011;10906;45.194;5.684;2022-12-05T15:36:37;21.05;;;13.90;;
21488;SDS011;10906;45.194;5.684;2022-12-05T15:39:26;21.80;;;14.05;;
21488;SDS011;10906;45.194;5.684;2022-12-05T15:42:12;23.98;;;14.60;;
21488;SDS011;10906;45.194;5.684;2022-12-05T15:50:48;25.52;;;17.50;;
21488;SDS011;10906;45.194;5.684;2022-12-05T15:53:37;28.00;;;17.08;;
21488;SDS011;10906;45.194;5.684;2022-12-05T16:00:32;26.90;;;17.08;;
21488;SDS011;10906;45.194;5.684;2022-12-05T16:03:45;34.53;;;18.48;;
21488;SDS011;10906;45.194;5.684;2022-12-05T16:06:46;26.45;;;17.15;;
21488;SDS011;10906;45.194;5.684;2022-12-05T16:09:45;26.10;;;16.60;;
21488;SDS011;10906;45.194;5.684;2022-12-05T16:12:37;30.67;;;18.88;;
21488;SDS011;10906;45.194;5.684;2022-12-05T16:15:24;29.23;;;17.08;;
21488;SDS011;10906;45.194;5.684;2022-12-05T16:18:26;29.10;;;18.77;;
21488;SDS011;10906;45.194;5.684;2022-12-05T16:24:19;36.78;;;22.00;;
21488;SDS011;10906;45.194;5.684;2022-12-05T16:27:16;27.35;;;17.85;;
21488;SDS011;10906;45.194;5.684;2022-12-05T16:30:16;30.20;;;18.85;;
21488;SDS011;10906;45.194;5.684;2022-12-05T16:33:04;30.55;;;18.65;;
21488;SDS011;10906;45.194;5.684;2022-12-05T16:35:51;31.02;;;18.95;;
21488;SDS011;10906;45.194;5.684;2022-12-05T16:38:36;30.83;;;19.65;;
21488;SDS011;10906;45.194;5.684;2022-12-05T16:41:34;30.27;;;18.80;;
21488;SDS011;10906;45.194;5.684;2022-12-05T16:50:32;31.65;;;20.23;;
21488;SDS011;10906;45.194;5.684;2022-12-05T16:53:21;27.27;;;19.17;;
21488;SDS011;10906;45.194;5.684;2022-12-05T16:59:12;29.02;;;20.73;;
21488;SDS011;10906;45.194;5.684;2022-12-05T17:02:54;29.70;;;19.60;;
21488;SDS011;10906;45.194;5.684;2022-12-05T17:44:20;27.50;;;18.40;;
21488;SDS011;10906;45.194;5.684;2022-12-05T17:47:16;29.40;;;18.95;;
21488;SDS011;10906;45.194;5.684;2022-12-05T17:50:54;25.58;;;18.95;;
21488;SDS011;10906;45.194;5.684;2022-12-05T17:54:37;28.48;;;19.83;;
21488;SDS011;10906;45.194;5.684;2022-12-05T18:05:03;37.97;;;21.33;;
21488;SDS011;10906;45.194;5.684;2022-12-05T18:12:32;34.72;;;23.75;;
21488;SDS011;10906;45.194;5.684;2022-12-05T18:19:37;35.17;;;23.33;;
21488;SDS011;10906;45.194;5.684;2022-12-05T18:22:59;37.33;;;24.88;;
21488;SDS011;10906;45.194;5.684;2022-12-05T18:34:45;39.67;;;26.92;;
21488;SDS011;10906;45.194;5.684;2022-12-05T18:41:53;35.03;;;22.90;;
21488;SDS011;10906;45.194;5.684;2022-12-05T18:45:19;34.65;;;22.27;;
21488;SDS011;10906;45.194;5.684;2022-12-05T18:48:36;33.33;;;22.13;;
21488;SDS011;10906;45.194;5.684;2022-12-05T18:55:42;34.08;;;22.75;;
21488;SDS011;10906;45.194;5.684;2022-12-05T18:59:12;35.13;;;22.88;;
21488;SDS011;10906;45.194;5.684;2022-12-05T19:02:25;31.38;;;21.65;;
21488;SDS011;10906;45.194;5.684;2022-12-05T19:05:22;34.83;;;21.50;;
21488;SDS011;10906;45.194;5.684;2022-12-05T19:08:25;34.05;;;22.63;;
21488;SDS011;10906;45.194;5.684;2022-12-05T19:11:27;34.67;;;23.02;;
21488;SDS011;10906;45.194;5.684;2022-12-05T19:14:21;38.92;;;23.67;;
21488;SDS011;10906;45.194;5.684;2022-12-05T19:17:09;35.80;;;23.60;;
21488;SDS011;10906;45.194;5.684;2022-12-05T19:20:39;33.90;;;23.73;;
21488;SDS011;10906;45.194;5.684;2022-12-05T19:23:38;37.60;;;23.40;;
21488;SDS011;10906;45.194;5.684;2022-12-05T19:33:54;38.35;;;24.65;;
21488;SDS011;10906;45.194;5.684;2022-12-05T20:04:15;40.78;;;24.75;;
21488;SDS011;10906;45.194;5.684;2022-12-05T20:11:22;45.03;;;30.20;;
21488;SDS011;10906;45.194;5.684;2022-12-05T20:15:13;40.22;;;27.15;;
21488;SDS011;10906;45.194;5.684;2022-12-05T20:18:24;39.50;;;25.85;;
21488;SDS011;10906;45.194;5.684;2022-12-05T20:36:46;46.10;;;31.13;;
21488;SDS011;10906;45.194;5.684;2022-12-05T20:39:31;42.03;;;27.35;;
21488;SDS011;10906;45.194;5.684;2022-12-05T20:42:16;42.05;;;27.15;;
21488;SDS011;10906;45.194;5.684;2022-12-05T20:45:03;44.88;;;28.35;;
21488;SDS011;10906;45.194;5.684;2022-12-05T20:48:00;45.13;;;27.55;;
21488;SDS011;10906;45.194;5.684;2022-12-05T20:57:46;71.30;;;44.70;;
21488;SDS011;10906;45.194;5.684;2022-12-05T21:00:30;51.75;;;30.20;;
21488;SDS011;10906;45.194;5.684;2022-12-05T21:03:15;41.90;;;27.52;;
21488;SDS011;10906;45.194;5.684;2022-12-05T21:06:05;39.70;;;26.58;;
21488;SDS011;10906;45.194;5.684;2022-12-05T21:08:53;41.03;;;27.98;;
21488;SDS011;10906;45.194;5.684;2022-12-05T21:11:39;39.58;;;26.95;;
21488;SDS011;10906;45.194;5.684;2022-12-05T21:14:24;39.50;;;26.60;;
21488;SDS011;10906;45.194;5.684;2022-12-05T21:17:08;42.33;;;27.10;;
21488;SDS011;10906;45.194;5.684;2022-12-05T21:19:53;38.55;;;26.13;;
21488;SDS011;10906;45.194;5.684;2022-12-05T21:25:21;42.30;;;26.23;;
21488;SDS011;10906;45.194;5.684;2022-12-05T21:30:50;38.83;;;25.88;;
21488;SDS011;10906;45.194;5.684;2022-12-05T21:33:34;37.83;;;26.35;;
21488;SDS011;10906;45.194;5.684;2022-12-05T21:36:19;42.03;;;26.08;;
21488;SDS011;10906;45.194;5.684;2022-12-05T21:39:04;37.83;;;24.45;;
21488;SDS011;10906;45.194;5.684;2022-12-05T21:41:49;44.45;;;27.55;;
21488;SDS011;10906;45.194;5.684;2022-12-05T21:44:33;42.00;;;27.25;;
21488;SDS011;10906;45.194;5.684;2022-12-05T21:47:17;40.95;;;26.58;;
21488;SDS011;10906;45.194;5.684;2022-12-05T21:50:02;41.50;;;27.50;;
21488;SDS011;10906;45.194;5.684;2022-12-05T21:52:47;42.08;;;26.48;;
21488;SDS011;10906;45.194;5.684;2022-12-05T21:55:31;40.08;;;27.50;;
21488;SDS011;10906;45.194;5.684;2022-12-05T21:58:16;47.00;;;30.60;;
21488;SDS011;10906;45.194;5.684;2022-12-05T22:01:00;40.88;;;28.70;;
21488;SDS011;10906;45.194;5.684;2022-12-05T22:03:45;39.80;;;26.33;;
21488;SDS011;10906;45.194;5.684;2022-12-05T22:06:29;41.88;;;25.45;;
21488;SDS011;10906;45.194;5.684;2022-12-05T22:09:17;37.15;;;25.08;;
21488;SDS011;10906;45.194;5.684;2022-12-05T22:12:02;39.70;;;26.20;;
21488;SDS011;10906;45.194;5.684;2022-12-05T22:14:47;38.05;;;25.23;;
21488;SDS011;10906;45.194;5.684;2022-12-05T22:17:31;36.05;;;24.95;;
21488;SDS011;10906;45.194;5.684;2022-12-05T22:20:15;37.47;;;24.73;;
21488;SDS011;10906;45.194;5.684;2022-12-05T22:22:59;38.67;;;25.02;;
21488;SDS011;10906;45.194;5.684;2022-12-05T22:25:53;37.60;;;25.42;;
21488;SDS011;10906;45.194;5.684;2022-12-05T22:28:45;40.83;;;25.70;;
21488;SDS011;10906;45.194;5.684;2022-12-05T22:31:31;37.83;;;25.98;;
21488;SDS011;10906;45.194;5.684;2022-12-05T22:34:15;39.28;;;27.40;;
21488;SDS011;10906;45.194;5.684;2022-12-05T22:36:59;39.13;;;25.73;;
21488;SDS011;10906;45.194;5.684;2022-12-05T22:39:44;37.30;;;25.52;;
21488;SDS011;10906;45.194;5.684;2022-12-05T22:42:29;40.22;;;25.70;;
21488;SDS011;10906;45.194;5.684;2022-12-05T22:45:13;40.65;;;25.58;;
21488;SDS011;10906;45.194;5.684;2022-12-05T22:47:58;36.75;;;25.10;;
21488;SDS011;10906;45.194;5.684;2022-12-05T22:50:49;39.00;;;25.88;;
21488;SDS011;10906;45.194;5.684;2022-12-05T22:53:35;39.17;;;25.38;;
21488;SDS011;10906;45.194;5.684;2022-12-05T22:56:21;43.67;;;26.05;;
21488;SDS011;10906;45.194;5.684;2022-12-05T22:59:09;44.33;;;26.42;;
